Time;durP1;ratioP1;P1;durP2;ratioP2;P2;SDS_P1;SDS_P2;PMS_P1;PMS_P2;Temp;Humidity;BMP_temperature;BMP_pressure;BME280_temperature;BME280_humidity;BME280_pressure;Samples;Min_cycle;Max_cycle;Signal;HPM_P1;HPM_P2
2022/08/11 00:00:44;;;;;;;38.38;34.47;;;26.90;33.40;;;;;;5032220;28;20116;-79
2022/08/11 00:03:12;;;;;;;37.40;33.95;;;26.90;33.60;;;;;;5052960;28;20390;-79
2022/08/11 00:05:45;;;;;;;36.90;33.80;;;27.00;33.90;;;;;;5035731;28;20045;-79
2022/08/11 00:08:27;;;;;;;38.22;34.83;;;27.00;34.10;;;;;;5036317;28;20041;-79
2022/08/11 00:10:58;;;;;;;36.47;33.20;;;27.00;34.40;;;;;;5052431;28;20021;-79
2022/08/11 00:13:44;;;;;;;38.55;34.80;;;27.00;34.40;;;;;;5052512;28;20033;-79
2022/08/11 00:16:23;;;;;;;39.97;36.28;;;26.90;34.10;;;;;;5052384;28;20022;-79
2022/08/11 00:18:54;;;;;;;36.55;33.38;;;27.00;34.60;;;;;;5052153;28;20043;-79
2022/08/11 00:21:21;;;;;;;37.25;33.97;;;26.90;34.90;;;;;;5052618;28;20025;-80
2022/08/11 00:23:54;;;;;;;36.85;33.60;;;26.90;35.00;;;;;;5035739;28;20044;-80
2022/08/11 00:26:21;;;;;;;36.65;33.28;;;26.90;35.30;;;;;;5035403;28;20037;-79
2022/08/11 00:28:47;;;;;;;36.60;33.28;;;26.80;35.40;;;;;;5035646;28;20037;-80
2022/08/11 00:31:43;;;;;;;37.60;34.30;;;26.80;35.50;;;;;;5035076;28;20517;-79
2022/08/11 00:34:12;;;;;;;35.50;32.50;;;26.80;35.40;;;;;;5034514;28;20036;-79
2022/08/11 00:37:02;;;;;;;35.60;32.63;;;26.70;35.40;;;;;;5035290;28;20045;-79
2022/08/11 00:39:30;;;;;;;34.85;31.70;;;26.60;35.30;;;;;;5046799;28;20045;-80
2022/08/11 00:42:23;;;;;;;34.22;31.15;;;26.40;35.50;;;;;;5051883;28;20494;-79
2022/08/11 00:44:59;;;;;;;33.03;30.15;;;26.20;35.90;;;;;;5023472;28;20048;-79
2022/08/11 00:47:34;;;;;;;32.40;29.70;;;25.80;36.50;;;;;;5015686;28;20511;-79
2022/08/11 00:50:13;;;;;;;30.52;28.00;;;25.70;36.80;;;;;;5031667;28;20045;-79
2022/08/11 00:53:02;;;;;;;28.38;26.52;;;25.60;37.00;;;;;;5017312;28;20391;-79
2022/08/11 00:55:34;;;;;;;28.98;26.52;;;25.50;37.50;;;;;;5015355;28;20041;-79
2022/08/11 00:58:06;;;;;;;28.40;26.25;;;25.30;37.80;;;;;;5033028;28;20025;-79
2022/08/11 01:00:41;;;;;;;27.88;25.67;;;25.30;38.00;;;;;;5032491;28;20029;-79
2022/08/11 01:03:44;;;;;;;26.85;25.05;;;25.20;38.10;;;;;;5014369;28;20037;-79
2022/08/11 01:06:21;;;;;;;25.77;24.17;;;25.10;38.50;;;;;;5014899;28;20077;-79
2022/08/11 01:09:24;;;;;;;26.05;24.25;;;25.00;38.70;;;;;;5015030;28;20049;-79
2022/08/11 01:11:56;;;;;;;25.65;24.08;;;24.90;39.10;;;;;;4993720;28;20045;-79
2022/08/11 01:14:43;;;;;;;25.55;23.95;;;24.90;39.00;;;;;;4994024;28;20369;-79
2022/08/11 01:17:28;;;;;;;26.00;23.88;;;24.90;39.00;;;;;;5009796;28;20401;-79
2022/08/11 01:20:31;;;;;;;27.13;25.15;;;25.00;38.90;;;;;;4993468;28;20049;-79
2022/08/11 01:23:26;;;;;;;24.52;23.13;;;25.00;39.00;;;;;;5010709;28;20052;-79
2022/08/11 01:26:01;;;;;;;24.90;23.40;;;25.10;39.10;;;;;;4996179;28;20157;-79
2022/08/11 01:28:48;;;;;;;24.23;22.73;;;24.90;39.40;;;;;;4993804;28;20041;-80
2022/08/11 01:31:26;;;;;;;25.00;22.95;;;24.90;39.50;;;;;;5009676;28;20046;-79
2022/08/11 01:34:11;;;;;;;24.95;23.65;;;24.80;40.00;;;;;;5010307;28;20034;-79
2022/08/11 01:37:06;;;;;;;24.73;23.13;;;24.70;40.20;;;;;;5009633;28;20038;-79
2022/08/11 01:39:37;;;;;;;24.85;23.23;;;24.70;40.10;;;;;;4941653;29;20059;-79
2022/08/11 01:45:45;;;;;;;24.92;23.65;;;24.60;40.30;;;;;;4937976;28;20042;-79
2022/08/11 01:48:26;;;;;;;23.90;22.42;;;24.50;40.50;;;;;;4948703;28;20062;-79
2022/08/11 01:51:32;;;;;;;23.15;21.83;;;24.40;40.70;;;;;;4975429;28;20038;-79
2022/08/11 01:54:20;;;;;;;23.70;22.38;;;24.30;41.10;;;;;;4974111;28;20046;-79
2022/08/11 01:56:58;;;;;;;25.02;23.23;;;24.20;41.40;;;;;;4974213;28;20421;-79
2022/08/11 01:59:30;;;;;;;23.77;22.23;;;24.20;41.30;;;;;;4990316;28;20404;-79
2022/08/11 02:02:14;;;;;;;23.20;21.95;;;24.20;41.50;;;;;;4973585;28;20030;-79
2022/08/11 02:04:56;;;;;;;23.20;21.65;;;24.00;41.70;;;;;;4990466;28;20050;-79
2022/08/11 02:07:44;;;;;;;23.08;21.33;;;24.00;41.90;;;;;;4974158;28;20041;-79
2022/08/11 02:13:35;;;;;;;22.47;21.27;;;23.90;42.20;;;;;;4984399;28;20099;-79
2022/08/11 02:16:39;;;;;;;21.88;20.58;;;23.90;42.90;;;;;;4984252;28;20056;-79
2022/08/11 02:25:06;;;;;;;21.15;19.85;;;23.70;42.70;;;;;;5035901;28;20044;-79
2022/08/11 02:27:48;;;;;;;21.95;20.75;;;23.60;42.90;;;;;;5045710;28;20041;-79
2022/08/11 02:30:16;;;;;;;21.23;20.02;;;23.50;43.10;;;;;;5044941;28;20392;-79
2022/08/11 02:33:23;;;;;;;21.52;20.23;;;23.50;43.50;;;;;;5028731;28;20065;-79
2022/08/11 02:36:18;;;;;;;21.10;19.80;;;23.40;43.30;;;;;;5013909;28;20052;-79
2022/08/11 02:39:08;;;;;;;20.83;19.50;;;23.30;43.70;;;;;;5012679;28;20034;-79
2022/08/11 02:44:35;;;;;;;21.17;19.85;;;23.30;43.90;;;;;;5031403;28;20431;-79
2022/08/11 02:47:38;;;;;;;19.80;18.42;;;23.10;44.30;;;;;;5028176;28;20053;-79
2022/08/11 02:50:22;;;;;;;19.70;18.52;;;23.00;44.40;;;;;;5028206;28;20037;-79
2022/08/11 02:53:02;;;;;;;19.55;18.33;;;23.00;44.50;;;;;;5012714;28;20025;-79
2022/08/11 02:55:54;;;;;;;19.80;18.70;;;22.90;44.60;;;;;;5035107;28;20037;-79
2022/08/11 02:58:26;;;;;;;19.85;18.45;;;22.90;44.60;;;;;;5034215;28;20033;-79
2022/08/11 03:01:13;;;;;;;19.33;17.95;;;22.80;44.90;;;;;;5050662;28;20032;-79
2022/08/11 03:04:12;;;;;;;21.33;18.73;;;22.80;44.60;;;;;;5049644;28;20052;-79
2022/08/11 03:06:46;;;;;;;20.23;18.63;;;22.70;45.10;;;;;;5048718;28;20044;-79
2022/08/11 03:10:03;;;;;;;19.20;18.13;;;22.60;45.10;;;;;;5049705;28;20028;-79
2022/08/11 03:18:28;;;;;;;19.90;18.58;;;22.60;45.30;;;;;;5029696;28;20601;-79
2022/08/11 03:21:23;;;;;;;18.70;17.50;;;22.50;45.30;;;;;;5011877;28;20046;-79
2022/08/11 03:24:10;;;;;;;18.67;17.25;;;22.50;45.40;;;;;;5028347;28;20053;-79
2022/08/11 03:26:57;;;;;;;17.73;16.58;;;22.40;45.60;;;;;;5025764;28;20033;-79
2022/08/11 03:29:36;;;;;;;18.23;17.13;;;22.30;45.80;;;;;;5026023;28;20467;-79
2022/08/11 03:32:07;;;;;;;17.50;16.33;;;22.30;45.80;;;;;;5010941;28;20440;-79
2022/08/11 03:34:36;;;;;;;18.63;17.38;;;22.30;46.00;;;;;;5027732;28;20049;-79
2022/08/11 03:37:47;;;;;;;18.02;16.67;;;22.20;46.20;;;;;;5015064;28;20026;-79
2022/08/11 03:43:23;;;;;;;17.48;16.33;;;22.10;46.30;;;;;;5032264;28;20152;-79
2022/08/11 03:45:49;;;;;;;17.30;16.30;;;22.10;46.50;;;;;;5031273;28;20029;-79
2022/08/11 03:48:39;;;;;;;17.33;16.33;;;22.10;46.50;;;;;;5046819;28;20044;-79
2022/08/11 03:51:24;;;;;;;18.08;16.65;;;22.00;46.50;;;;;;5038013;28;20021;-79
2022/08/11 03:54:14;;;;;;;18.02;16.90;;;22.00;46.60;;;;;;5036925;28;20041;-79
2022/08/11 03:56:59;;;;;;;17.88;16.77;;;22.00;46.80;;;;;;5036854;28;20033;-79
2022/08/11 03:59:33;;;;;;;17.25;16.35;;;22.00;46.80;;;;;;5053063;28;20068;-79
2022/08/11 04:02:27;;;;;;;19.77;17.85;;;22.10;46.50;;;;;;5035877;28;20048;-79
2022/08/11 04:05:15;;;;;;;17.98;16.88;;;22.20;46.30;;;;;;5053010;28;20045;-79
2022/08/11 04:07:56;;;;;;;18.42;17.05;;;22.30;46.10;;;;;;5054104;28;20036;-79
2022/08/11 04:10:55;;;;;;;18.15;16.95;;;22.40;45.70;;;;;;5052054;28;20418;-79
2022/08/11 04:13:33;;;;;;;18.63;17.30;;;22.50;45.50;;;;;;5052782;28;20494;-79
2022/08/11 04:16:28;;;;;;;18.85;17.40;;;22.60;45.10;;;;;;5053220;28;20037;-79
2022/08/11 04:19:10;;;;;;;18.60;17.45;;;22.70;44.80;;;;;;5052670;28;20037;-79
2022/08/11 04:22:02;;;;;;;18.40;17.40;;;22.70;44.90;;;;;;5053842;28;20036;-79
2022/08/11 04:24:46;;;;;;;19.90;17.80;;;22.70;44.80;;;;;;5052404;28;20088;-79
2022/08/11 04:27:35;;;;;;;18.15;17.05;;;22.60;45.10;;;;;;5052201;28;20516;-79
2022/08/11 04:30:01;;;;;;;18.45;17.35;;;22.60;44.90;;;;;;5036165;28;20040;-79
2022/08/11 04:32:33;;;;;;;19.00;17.80;;;22.60;44.90;;;;;;5051959;28;20036;-79
2022/08/11 04:35:27;;;;;;;19.00;17.52;;;22.50;45.10;;;;;;5047202;28;20033;-79
2022/08/11 04:38:32;;;;;;;19.00;17.90;;;22.60;45.10;;;;;;5032337;28;20932;-79
2022/08/11 04:41:26;;;;;;;18.38;17.33;;;22.60;45.20;;;;;;5033124;28;20484;-79
2022/08/11 04:44:30;;;;;;;18.33;17.25;;;22.50;45.10;;;;;;5021678;28;20037;-79
2022/08/11 05:02:50;;;;;;;18.30;17.10;;;22.20;45.90;;;;;;5029328;28;20041;-80
2022/08/11 05:05:31;;;;;;;18.73;17.42;;;22.10;46.00;;;;;;5014067;28;20060;-79
2022/08/11 05:08:35;;;;;;;18.58;17.27;;;22.10;46.20;;;;;;5030409;28;20030;-79
2022/08/11 05:11:33;;;;;;;17.77;16.67;;;22.10;46.20;;;;;;5013915;28;20365;-79
2022/08/11 05:36:42;;;;;;;20.83;19.40;;;22.90;45.10;;;;;;5037263;28;20052;-79
2022/08/11 05:56:18;;;;;;;20.67;19.38;;;22.70;45.30;;;;;;5031135;28;20041;-79
2022/08/11 05:58:50;;;;;;;21.67;19.85;;;22.90;45.10;;;;;;5015888;28;20594;-79
2022/08/11 06:01:30;;;;;;;22.08;20.65;;;22.90;44.90;;;;;;5030357;28;20524;-79
2022/08/11 06:04:15;;;;;;;21.77;20.15;;;23.00;44.90;;;;;;5030440;28;20037;-79
2022/08/11 06:06:53;;;;;;;22.42;20.48;;;23.20;44.40;;;;;;5030394;28;20044;-79
2022/08/11 06:09:33;;;;;;;21.25;19.98;;;23.30;44.20;;;;;;5030611;28;20025;-79
2022/08/11 06:12:09;;;;;;;22.63;21.05;;;23.30;44.10;;;;;;5013826;28;20029;-79
2022/08/11 06:14:41;;;;;;;22.75;20.83;;;23.50;43.90;;;;;;5030575;28;20036;-79
2022/08/11 06:17:07;;;;;;;23.10;21.50;;;23.50;43.60;;;;;;5013649;28;20025;-78
2022/08/11 06:19:41;;;;;;;23.77;21.83;;;23.60;43.60;;;;;;5030341;28;20052;-79
2022/08/11 06:22:09;;;;;;;23.33;21.92;;;23.60;43.40;;;;;;5014006;28;20045;-79
2022/08/11 06:24:38;;;;;;;23.98;22.48;;;23.80;42.90;;;;;;5014063;28;20487;-79
2022/08/11 06:27:05;;;;;;;23.33;22.00;;;23.90;42.90;;;;;;5013756;28;20049;-79
2022/08/11 06:29:32;;;;;;;24.55;23.10;;;24.10;42.30;;;;;;5030280;28;20028;-79
2022/08/11 06:32:00;;;;;;;24.27;22.80;;;24.10;42.10;;;;;;5011443;28;20041;-79
2022/08/11 06:34:41;;;;;;;23.55;22.25;;;24.10;42.50;;;;;;5031590;28;20025;-79
2022/08/11 06:37:43;;;;;;;25.13;23.42;;;24.10;42.50;;;;;;5049497;28;20033;-79
2022/08/11 06:40:26;;;;;;;24.48;23.08;;;24.30;41.80;;;;;;5035122;28;20291;-79
2022/08/11 06:42:53;;;;;;;24.83;23.38;;;24.40;41.60;;;;;;5030303;28;20028;-79
2022/08/11 06:45:29;;;;;;;27.75;25.98;;;24.50;41.30;;;;;;5030900;28;20495;-79
2022/08/11 06:47:59;;;;;;;26.95;24.85;;;24.50;41.80;;;;;;5033481;28;20414;-79
2022/08/11 06:53:11;;;;;;;28.10;26.38;;;24.80;41.10;;;;;;5040351;28;20040;-79
2022/08/11 07:01:20;;;;;;;29.52;27.52;;;25.00;40.30;;;;;;5038666;28;20048;-79
2022/08/11 07:03:48;;;;;;;31.25;29.00;;;25.20;40.00;;;;;;5033551;28;20063;-79
2022/08/11 07:06:14;;;;;;;28.00;26.30;;;25.30;39.80;;;;;;5033049;28;20028;-79
2022/08/11 07:17:20;;;;;;;35.38;32.88;;;25.70;38.80;;;;;;5035667;28;20048;-79
2022/08/11 07:31:31;;;;;;;37.85;34.45;;;26.10;38.00;;;;;;5035792;28;20036;-79
2022/08/11 07:34:23;;;;;;;37.50;34.55;;;26.30;37.80;;;;;;5050227;28;20025;-79
2022/08/11 07:36:54;;;;;;;38.30;35.45;;;26.40;37.40;;;;;;5015721;28;20037;-79
2022/08/11 07:39:21;;;;;;;;;;;26.50;37.20;;;;;;5020827;28;20498;-79
2022/08/11 07:41:48;;;;;;;39.47;35.88;;;26.60;36.90;;;;;;5082789;28;19905;-79
2022/08/11 07:44:15;;;;;;;40.33;37.65;;;26.80;36.90;;;;;;5040299;28;20468;-79
2022/08/11 07:55:15;;;;;;;43.42;40.13;;;27.30;35.70;;;;;;5049534;28;20048;-79
2022/08/11 08:20:06;;;;;;;1999.90;999.90;;;28.00;33.40;;;;;;5049199;28;20503;-79
2022/08/11 08:22:32;;;;;;;1999.90;999.90;;;28.20;33.40;;;;;;5050422;28;20032;-79
2022/08/11 08:24:58;;;;;;;1999.90;999.90;;;28.60;32.70;;;;;;5035808;28;20060;-79
2022/08/11 08:27:24;;;;;;;1999.90;999.90;;;28.60;32.60;;;;;;5036091;28;20495;-79
2022/08/11 08:32:39;;;;;;;1999.90;999.90;;;29.00;32.30;;;;;;5051472;28;20032;-79
2022/08/11 08:35:05;;;;;;;1999.90;999.90;;;29.10;31.90;;;;;;5052363;28;20029;-79
2022/08/11 08:37:31;;;;;;;1999.90;999.90;;;29.20;31.70;;;;;;5052293;28;20037;-81
2022/08/11 08:39:58;;;;;;;1999.90;999.90;;;29.40;31.40;;;;;;5050476;28;20049;-79
2022/08/11 08:42:31;;;;;;;1999.90;999.90;;;29.10;31.60;;;;;;5052084;28;20033;-79
2022/08/11 08:45:09;;;;;;;1999.90;999.90;;;29.20;31.50;;;;;;5021022;28;20325;-80
2022/08/11 08:47:37;;;;;;;1999.90;999.90;;;29.40;31.30;;;;;;5015516;28;20041;-81
2022/08/11 08:50:06;;;;;;;1999.90;999.90;;;29.50;31.70;;;;;;4998942;28;20049;-80
2022/08/11 08:52:39;;;;;;;1999.90;999.90;;;29.60;30.50;;;;;;5015789;28;20400;-80
2022/08/11 08:55:06;;;;;;;1999.90;999.90;;;29.70;30.30;;;;;;5016241;28;20037;-80
2022/08/11 08:57:34;;;;;;;1999.90;999.90;;;29.80;30.50;;;;;;5015695;28;20495;-80
2022/08/11 09:00:00;;;;;;;1999.90;999.90;;;30.00;30.10;;;;;;5015336;28;20041;-80
2022/08/11 09:02:26;;;;;;;1999.90;999.90;;;30.20;29.80;;;;;;4998322;28;20037;-80
2022/08/11 09:04:52;;;;;;;1999.90;999.90;;;30.30;29.60;;;;;;5015482;28;20036;-81
2022/08/11 09:07:22;;;;;;;1999.90;999.90;;;30.30;29.50;;;;;;5015274;28;20454;-81
2022/08/11 09:09:49;;;;;;;1999.90;999.90;;;30.40;29.60;;;;;;5015567;28;20029;-81
2022/08/11 09:12:16;;;;;;;1999.90;999.90;;;30.60;29.30;;;;;;5015529;28;20029;-81
2022/08/11 09:17:32;;;;;;;1999.90;999.90;;;30.80;28.90;;;;;;5017467;28;20033;-80
2022/08/11 09:20:06;;;;;;;1999.90;999.90;;;30.90;28.80;;;;;;5015678;28;20056;-79
2022/08/11 09:28:06;;;;;;;1999.90;999.90;;;31.20;28.40;;;;;;5024404;28;20033;-80
2022/08/11 09:30:32;;;;;;;1999.90;999.90;;;31.30;28.00;;;;;;5014326;28;20029;-80
2022/08/11 09:33:00;;;;;;;1999.90;999.90;;;31.20;27.90;;;;;;5014885;28;20025;-80
2022/08/11 09:35:27;;;;;;;1999.90;999.90;;;31.10;28.00;;;;;;5024198;28;20036;-80
2022/08/11 09:40:45;;;;;;;1999.90;999.90;;;31.40;28.10;;;;;;5057813;28;20049;-80
2022/08/11 09:45:57;;;;;;;1999.90;999.90;;;31.80;27.70;;;;;;5024737;28;20480;-81
2022/08/11 09:48:24;;;;;;;1999.90;999.90;;;32.00;27.40;;;;;;5051070;28;20399;-81
2022/08/11 09:50:55;;;;;;;1999.90;999.90;;;31.90;27.40;;;;;;5034218;28;20048;-81
2022/08/11 09:53:22;;;;;;;1999.90;999.90;;;31.90;27.30;;;;;;5034923;28;20048;-81
2022/08/11 09:55:48;;;;;;;1999.90;999.90;;;32.00;27.30;;;;;;5050746;28;20032;-80
2022/08/11 09:58:17;;;;;;;1999.90;999.90;;;32.30;27.40;;;;;;5033895;28;20044;-80
2022/08/11 10:00:47;;;;;;;1999.90;999.90;;;32.50;27.10;;;;;;5033838;28;20037;-80
2022/08/11 10:03:16;;;;;;;1999.90;999.90;;;32.40;27.40;;;;;;5034034;28;20487;-80
2022/08/11 10:08:34;;;;;;;1999.90;999.90;;;32.50;26.80;;;;;;5057234;28;20033;-80
2022/08/11 10:11:00;;;;;;;1999.90;999.90;;;32.40;26.80;;;;;;5050624;28;20203;-80
2022/08/11 10:15:32;;;;;;;1999.90;999.90;;;32.50;27.00;;;;;;5050286;28;20411;-80
2022/08/11 10:16:23;;;;;;;1999.90;999.90;;;32.50;26.70;;;;;;5050317;28;20044;-81
2022/08/11 10:18:52;;;;;;;1999.90;999.90;;;32.60;26.70;;;;;;5033696;28;20048;-81
2022/08/11 10:21:37;;;;;;;1999.90;999.90;;;32.60;26.10;;;;;;5033915;28;20057;-81
2022/08/11 10:26:53;;;;;;;1999.90;999.90;;;32.80;26.20;;;;;;5056035;28;20024;-80
2022/08/11 10:35:12;;;;;;;1999.90;999.90;;;32.70;26.10;;;;;;5054332;28;20044;-80
2022/08/11 10:37:38;;;;;;;1999.90;999.90;;;32.80;26.30;;;;;;5033734;28;20052;-78
2022/08/11 10:40:05;;;;;;;1999.90;999.90;;;32.90;26.30;;;;;;5035628;28;20036;-79
2022/08/11 10:48:01;;;;;;;1999.90;999.90;;;33.40;25.80;;;;;;5050040;28;20049;-79
2022/08/11 10:58:50;;;;;;;1999.90;999.90;;;33.40;25.70;;;;;;5050380;28;20025;-79
2022/08/11 11:01:25;;;;;;;1999.90;999.90;;;33.50;25.80;;;;;;5049331;28;20048;-79
2022/08/11 11:03:57;;;;;;;1999.90;999.90;;;33.70;25.30;;;;;;5049889;28;20029;-79
2022/08/11 11:06:44;;;;;;;1999.90;999.90;;;33.50;25.10;;;;;;5033018;28;20053;-79
2022/08/11 11:09:21;;;;;;;1999.90;999.90;;;33.60;25.20;;;;;;5050802;28;20033;-78
2022/08/11 11:20:18;;;;;;;1999.90;999.90;;;33.40;25.30;;;;;;5051141;28;20029;-79
2022/08/11 11:22:47;;;;;;;1999.90;999.90;;;33.40;25.40;;;;;;5049617;28;20375;-79
2022/08/11 11:25:20;;;;;;;1999.90;999.90;;;33.60;25.40;;;;;;5032781;28;20507;-79
2022/08/11 11:28:27;;;;;;;1999.90;999.90;;;33.70;25.20;;;;;;5032704;28;20037;-78
2022/08/11 11:31:05;;;;;;;1999.90;999.90;;;33.70;25.10;;;;;;5032123;28;20500;-78
2022/08/11 11:33:49;;;;;;;1999.90;999.90;;;33.70;25.20;;;;;;5049294;28;20037;-78
2022/08/11 11:36:38;;;;;;;1999.90;999.90;;;33.80;25.20;;;;;;5029432;28;20041;-79
2022/08/11 11:39:05;;;;;;;1999.90;999.90;;;33.90;25.40;;;;;;5028060;28;20037;-78
2022/08/11 11:41:31;;;;;;;1999.90;999.90;;;34.00;25.00;;;;;;5048820;28;20029;-79
2022/08/11 11:43:58;;;;;;;1999.90;999.90;;;34.10;24.90;;;;;;5042367;28;20025;-79
2022/08/11 11:46:25;;;;;;;1999.90;999.90;;;34.20;24.70;;;;;;5023811;28;20530;-79
2022/08/11 11:48:52;;;;;;;1999.90;999.90;;;34.30;24.50;;;;;;5049337;28;20028;-79
2022/08/11 11:51:19;;;;;;;1999.90;999.90;;;34.40;24.60;;;;;;5049154;28;20747;-79
2022/08/11 11:53:46;;;;;;;1999.90;999.90;;;34.60;24.60;;;;;;5049244;28;20025;-79
2022/08/11 11:56:13;;;;;;;1999.90;999.90;;;34.60;24.10;;;;;;5049015;28;20025;-79
2022/08/11 12:01:24;;;;;;;1999.90;999.90;;;34.60;24.20;;;;;;5054619;28;20049;-79
2022/08/11 12:03:51;;;;;;;1999.90;999.90;;;34.60;23.90;;;;;;5052944;28;20036;-79
2022/08/11 12:06:19;;;;;;;1999.90;999.90;;;34.60;24.00;;;;;;5052986;28;20032;-79
2022/08/11 12:08:48;;;;;;;1999.90;999.90;;;34.60;24.10;;;;;;5035817;28;20052;-79
2022/08/11 12:14:04;;;;;;;1999.90;999.90;;;34.60;24.20;;;;;;5018362;28;20424;-78
2022/08/11 12:16:30;;;;;;;1999.90;999.90;;;34.60;23.60;;;;;;5030926;28;20037;-78
2022/08/11 12:18:58;;;;;;;1999.90;999.90;;;34.60;23.50;;;;;;5031577;28;20137;-78
2022/08/11 12:21:26;;;;;;;1999.90;999.90;;;34.50;23.80;;;;;;5031389;28;20049;-78
2022/08/11 12:29:26;;;;;;;1999.90;999.90;;;34.80;23.80;;;;;;5037941;28;20037;-79
2022/08/11 12:31:54;;;;;;;1999.90;999.90;;;34.80;23.60;;;;;;5030431;28;20041;-78
2022/08/11 12:34:23;;;;;;;1999.90;999.90;;;34.90;23.90;;;;;;5031109;28;20033;-78
2022/08/11 12:36:53;;;;;;;1999.90;999.90;;;34.80;23.70;;;;;;4999410;28;20025;-79
2022/08/11 12:45:26;;;;;;;;;;;34.60;23.60;;;;;;4998913;28;20045;-79
2022/08/11 12:51:57;;;;;;;1999.90;999.90;;;35.00;23.60;;;;;;5010218;28;20501;-78
2022/08/11 12:53:10;;;;;;;1999.90;999.90;;;35.10;23.70;;;;;;5038572;28;20038;-79
2022/08/11 12:58:21;;;;;;;1999.90;999.90;;;35.00;23.60;;;;;;5019191;28;20480;-79
2022/08/11 13:06:17;;;;;;;1999.90;999.90;;;35.20;23.30;;;;;;5024854;28;20029;-78
2022/08/11 13:08:44;;;;;;;1999.90;999.90;;;35.10;23.30;;;;;;5014012;28;20030;-79
2022/08/11 13:13:56;;;;;;;1999.90;999.90;;;35.20;23.10;;;;;;5018509;28;20033;-79
2022/08/11 13:16:26;;;;;;;1999.90;999.90;;;35.30;23.20;;;;;;4997953;28;20037;-79
2022/08/11 13:18:53;;;;;;;1999.90;999.90;;;35.40;23.20;;;;;;5031721;28;20032;-79
2022/08/11 13:21:19;;;;;;;1999.90;999.90;;;35.50;22.60;;;;;;4997867;28;20045;-79
2022/08/11 13:23:45;;;;;;;1999.90;999.90;;;35.60;22.60;;;;;;5015309;28;20456;-79
2022/08/11 13:26:13;;;;;;;1999.90;999.90;;;35.40;22.60;;;;;;5031595;28;20029;-79
2022/08/11 13:28:39;;;;;;;1999.90;999.90;;;35.40;22.40;;;;;;5031210;28;20036;-79
2022/08/11 13:31:10;;;;;;;1999.90;999.90;;;35.40;22.50;;;;;;5014508;28;20030;-79
2022/08/11 13:33:50;;;;;;;1999.90;999.90;;;35.50;22.70;;;;;;5015868;28;20026;-79
2022/08/11 13:36:21;;;;;;;1999.90;999.90;;;35.40;22.60;;;;;;5031461;28;20033;-78
2022/08/11 13:38:47;;;;;;;1999.90;999.90;;;35.40;22.60;;;;;;5047964;28;20030;-79
2022/08/11 13:43:58;;;;;;;1999.90;999.90;;;35.40;22.60;;;;;;5024517;28;20037;-78
2022/08/11 13:46:24;;;;;;;1999.90;999.90;;;35.30;22.50;;;;;;5041888;28;20044;-79
2022/08/11 13:48:54;;;;;;;1999.90;999.90;;;35.30;22.70;;;;;;5051111;28;20025;-78
2022/08/11 13:51:29;;;;;;;1999.90;999.90;;;35.40;22.50;;;;;;5034168;28;20515;-79
2022/08/11 13:54:20;;;;;;;1999.90;999.90;;;35.30;22.00;;;;;;5051014;28;20352;-78
2022/08/11 13:56:48;;;;;;;1999.90;999.90;;;35.20;22.20;;;;;;5031118;28;20483;-78
2022/08/11 13:59:19;;;;;;;1999.90;999.90;;;35.20;22.30;;;;;;5050606;28;20025;-78
2022/08/11 14:01:52;;;;;;;1999.90;999.90;;;35.30;22.50;;;;;;5049932;28;20056;-78
2022/08/11 14:04:40;;;;;;;1999.90;999.90;;;35.40;22.40;;;;;;5050833;28;20021;-79
2022/08/11 14:07:08;;;;;;;1999.90;999.90;;;35.50;22.20;;;;;;5030113;28;20411;-79
2022/08/11 14:09:38;;;;;;;1999.90;999.90;;;35.40;22.30;;;;;;5050710;28;20036;-78
2022/08/11 14:15:07;;;;;;;1999.90;999.90;;;35.20;22.40;;;;;;5057421;28;20025;-79
2022/08/11 14:17:33;;;;;;;1999.90;999.90;;;35.20;22.20;;;;;;5034079;28;20040;-79
2022/08/11 14:20:02;;;;;;;1999.90;999.90;;;35.30;22.50;;;;;;5049812;28;20029;-79
2022/08/11 14:22:29;;;;;;;1999.90;999.90;;;35.50;22.50;;;;;;5034057;28;20495;-79
2022/08/11 14:24:55;;;;;;;1999.90;999.90;;;35.50;22.10;;;;;;5033551;28;20075;-79
2022/08/11 14:27:25;;;;;;;1999.90;999.90;;;35.50;22.10;;;;;;5033524;28;20116;-79
2022/08/11 14:29:52;;;;;;;1999.90;999.90;;;35.40;21.90;;;;;;5050253;28;20025;-79
2022/08/11 14:32:18;;;;;;;1999.90;999.90;;;35.30;22.20;;;;;;5049852;28;20395;-78
2022/08/11 14:34:44;;;;;;;1999.90;999.90;;;35.40;22.00;;;;;;5049572;28;20037;-79
2022/08/11 14:37:18;;;;;;;1999.90;999.90;;;35.60;22.10;;;;;;5032978;28;20033;-79
2022/08/11 14:39:58;;;;;;;1999.90;999.90;;;35.60;21.70;;;;;;5032737;28;20428;-79
2022/08/11 14:48:00;;;;;;;1999.90;999.90;;;35.50;21.80;;;;;;5050546;28;20052;-78
2022/08/11 14:50:27;;;;;;;1999.90;999.90;;;35.50;22.00;;;;;;5033083;28;20048;-78
2022/08/11 14:53:02;;;;;;;1999.90;999.90;;;35.50;21.80;;;;;;5050036;28;20040;-78
2022/08/11 14:58:18;;;;;;;1999.90;999.90;;;35.40;21.80;;;;;;5056830;28;20068;-78
2022/08/11 15:00:44;;;;;;;1999.90;999.90;;;35.30;22.10;;;;;;5032341;28;20479;-78
2022/08/11 15:03:11;;;;;;;1999.90;999.90;;;35.30;22.30;;;;;;5049386;28;20040;-78
2022/08/11 15:05:40;;;;;;;1999.90;999.90;;;35.40;22.00;;;;;;5049770;28;20021;-78
2022/08/11 15:08:08;;;;;;;1999.90;999.90;;;35.50;21.80;;;;;;5049663;28;20044;-79
2022/08/11 15:10:35;;;;;;;1999.90;999.90;;;35.30;21.70;;;;;;5049738;28;20028;-79
2022/08/11 15:13:01;;;;;;;1999.90;999.90;;;35.30;21.80;;;;;;5049632;28;20040;-79
2022/08/11 15:18:15;;;;;;;1999.90;999.90;;;35.10;21.70;;;;;;5050926;28;20033;-78
2022/08/11 15:37:44;;;;;;;1999.90;999.90;;;35.20;21.70;;;;;;5058453;28;20029;-79
2022/08/11 15:46:53;;;;;;;1999.90;999.90;;;35.20;21.80;;;;;;5031187;28;20399;-79
2022/08/11 15:49:27;;;;;;;1999.90;999.90;;;35.00;21.70;;;;;;5049033;28;20037;-79
2022/08/11 15:52:09;;;;;;;1999.90;999.90;;;35.10;21.80;;;;;;5018497;28;20423;-79
2022/08/11 15:54:40;;;;;;;1999.90;999.90;;;35.00;21.60;;;;;;5035433;28;20029;-79
2022/08/11 15:57:07;;;;;;;1999.90;999.90;;;35.00;21.60;;;;;;5018464;28;20056;-79
2022/08/11 16:05:07;;;;;;;1999.90;999.90;;;34.90;21.70;;;;;;5040595;28;20041;-78
2022/08/11 16:07:34;;;;;;;1999.90;999.90;;;34.80;21.60;;;;;;5018637;28;20037;-78
2022/08/11 16:10:17;;;;;;;1999.90;999.90;;;34.70;21.70;;;;;;5018446;28;20044;-78
2022/08/11 16:16:13;;;;;;;1999.90;999.90;;;34.90;21.70;;;;;;5019037;28;20041;-81
2022/08/11 16:18:57;;;;;;;1999.90;999.90;;;34.80;21.70;;;;;;5052670;28;20040;-78
2022/08/11 16:21:29;;;;;;;1999.90;999.90;;;34.80;21.70;;;;;;5036028;28;20044;-78
2022/08/11 16:23:56;;;;;;;1999.90;999.90;;;34.70;21.40;;;;;;5052543;28;20040;-78
2022/08/11 16:26:22;;;;;;;1999.90;999.90;;;34.60;21.40;;;;;;5052618;28;20468;-79
2022/08/11 16:28:53;;;;;;;1999.90;999.90;;;34.60;21.80;;;;;;5052678;28;20048;-78
2022/08/11 16:31:20;;;;;;;1999.90;999.90;;;34.60;21.80;;;;;;5034822;28;20055;-78
2022/08/11 16:33:46;;;;;;;1999.90;999.90;;;34.70;21.50;;;;;;5052433;28;20036;-78
2022/08/11 16:38:57;;;;;;;1999.90;999.90;;;34.60;21.50;;;;;;5054713;28;20033;-78
2022/08/11 16:46:59;;;;;;;1999.90;999.90;;;34.60;21.90;;;;;;5048556;28;20045;-81
2022/08/11 16:49:26;;;;;;;1999.90;999.90;;;34.60;21.70;;;;;;5052301;28;20460;-78
2022/08/11 16:51:52;;;;;;;1999.90;999.90;;;34.60;21.60;;;;;;5052040;28;20336;-78
2022/08/11 16:54:18;;;;;;;1999.90;999.90;;;34.50;21.70;;;;;;5035448;28;20045;-78
2022/08/11 16:56:49;;;;;;;1999.90;999.90;;;34.40;21.80;;;;;;5051874;28;20036;-78
2022/08/11 16:59:36;;;;;;;1999.90;999.90;;;34.30;21.70;;;;;;5051702;28;20040;-79
2022/08/11 17:02:05;;;;;;;1999.90;999.90;;;34.30;21.60;;;;;;5051217;28;20400;-78
2022/08/11 17:13:12;;;;;;;1999.90;999.90;;;34.20;22.10;;;;;;5053975;28;20040;-78
2022/08/11 17:18:44;;;;;;;1999.90;999.90;;;34.10;21.70;;;;;;5058377;28;20025;-78
2022/08/11 17:21:24;;;;;;;1999.90;999.90;;;34.10;21.60;;;;;;5036633;28;20037;-79
2022/08/11 17:23:57;;;;;;;1999.90;999.90;;;34.10;21.80;;;;;;5051509;28;20036;-78
2022/08/11 17:26:54;;;;;;;1999.90;999.90;;;34.00;21.80;;;;;;5034614;28;20387;-79
2022/08/11 17:29:19;;;;;;;1999.90;999.90;;;33.90;21.80;;;;;;5051131;28;20040;-81
2022/08/11 17:37:15;;;;;;;1999.90;999.90;;;33.70;21.90;;;;;;5052035;28;20033;-81
2022/08/11 17:39:41;;;;;;;1999.90;999.90;;;33.60;21.90;;;;;;5040375;28;20030;-81
2022/08/11 17:50:25;;;;;;;1999.90;999.90;;;33.40;22.20;;;;;;5003693;28;20041;-78
2022/08/11 18:01:06;;;;;;;1999.90;999.90;;;33.20;22.00;;;;;;5018203;28;20025;-81